sensor_id;sensor_type;location;lat;lon;timestamp;P1;durP1;ratioP1;P2;durP2;ratioP2
5630;SDS011;2837;50.990;7.124;2023-05-08T05:01:39;160.10;;;15.90;;
5630;SDS011;2837;50.990;7.124;2023-05-08T05:04:05;162.27;;;17.43;;
5630;SDS011;2837;50.990;7.124;2023-05-08T05:06:31;160.27;;;17.00;;
5630;SDS011;2837;50.990;7.124;2023-05-08T05:08:57;160.23;;;17.00;;
5630;SDS011;2837;50.990;7.124;2023-05-08T05:11:23;160.30;;;16.30;;
5630;SDS011;2837;50.990;7.124;2023-05-08T05:13:48;159.20;;;16.20;;
5630;SDS011;2837;50.990;7.124;2023-05-08T05:16:14;159.90;;;17.37;;
5630;SDS011;2837;50.990;7.124;2023-05-08T05:18:39;160.40;;;16.97;;
5630;SDS011;2837;50.990;7.124;2023-05-08T05:21:05;159.33;;;16.40;;
5630;SDS011;2837;50.990;7.124;2023-05-08T05:23:30;160.50;;;17.53;;
5630;SDS011;2837;50.990;7.124;2023-05-08T05:25:56;160.33;;;18.13;;
5630;SDS011;2837;50.990;7.124;2023-05-08T05:28:22;161.27;;;16.53;;
5630;SDS011;2837;50.990;7.124;2023-05-08T05:30:47;162.50;;;18.50;;
5630;SDS011;2837;50.990;7.124;2023-05-08T05:33:13;159.87;;;16.40;;
5630;SDS011;2837;50.990;7.124;2023-05-08T05:35:39;160.17;;;16.73;;
5630;SDS011;2837;50.990;7.124;2023-05-08T05:38:04;158.97;;;16.10;;
5630;SDS011;2837;50.990;7.124;2023-05-08T05:40:30;158.97;;;15.33;;
5630;SDS011;2837;50.990;7.124;2023-05-08T05:42:55;166.90;;;16.87;;
5630;SDS011;2837;50.990;7.124;2023-05-08T05:45:21;159.10;;;15.60;;
5630;SDS011;2837;50.990;7.124;2023-05-08T05:47:46;159.53;;;16.63;;
5630;SDS011;2837;50.990;7.124;2023-05-08T05:50:14;159.10;;;16.23;;
5630;SDS011;2837;50.990;7.124;2023-05-08T05:52:42;158.40;;;15.80;;
5630;SDS011;2837;50.990;7.124;2023-05-08T05:55:08;160.83;;;16.53;;
5630;SDS011;2837;50.990;7.124;2023-05-08T05:57:34;160.37;;;17.03;;
5630;SDS011;2837;50.990;7.124;2023-05-08T05:59:59;159.13;;;16.90;;
5630;SDS011;2837;50.990;7.124;2023-05-08T06:02:25;158.80;;;16.10;;
5630;SDS011;2837;50.990;7.124;2023-05-08T06:04:50;159.47;;;15.60;;
5630;SDS011;2837;50.990;7.124;2023-05-08T06:07:16;158.57;;;15.63;;
5630;SDS011;2837;50.990;7.124;2023-05-08T06:09:42;159.20;;;16.00;;
5630;SDS011;2837;50.990;7.124;2023-05-08T06:12:07;160.07;;;15.63;;
5630;SDS011;2837;50.990;7.124;2023-05-08T06:14:33;160.57;;;15.87;;
5630;SDS011;2837;50.990;7.124;2023-05-08T06:16:58;158.60;;;15.30;;
5630;SDS011;2837;50.990;7.124;2023-05-08T06:19:24;159.80;;;15.97;;
5630;SDS011;2837;50.990;7.124;2023-05-08T06:21:50;158.20;;;14.60;;
5630;SDS011;2837;50.990;7.124;2023-05-08T06:24:16;158.70;;;14.60;;
5630;SDS011;2837;50.990;7.124;2023-05-08T06:26:41;159.17;;;15.10;;
5630;SDS011;2837;50.990;7.124;2023-05-08T06:29:07;158.80;;;15.70;;
5630;SDS011;2837;50.990;7.124;2023-05-08T06:31:32;158.77;;;15.70;;
5630;SDS011;2837;50.990;7.124;2023-05-08T06:33:58;165.27;;;16.17;;
5630;SDS011;2837;50.990;7.124;2023-05-08T06:36:23;159.57;;;15.70;;
5630;SDS011;2837;50.990;7.124;2023-05-08T06:38:49;159.23;;;15.23;;
5630;SDS011;2837;50.990;7.124;2023-05-08T06:41:14;157.53;;;14.63;;
5630;SDS011;2837;50.990;7.124;2023-05-08T06:43:40;159.37;;;14.93;;
5630;SDS011;2837;50.990;7.124;2023-05-08T06:46:06;158.37;;;14.60;;
5630;SDS011;2837;50.990;7.124;2023-05-08T06:48:32;158.30;;;15.30;;
5630;SDS011;2837;50.990;7.124;2023-05-08T06:50:57;160.67;;;15.20;;
5630;SDS011;2837;50.990;7.124;2023-05-08T06:53:23;156.33;;;13.90;;
5630;SDS011;2837;50.990;7.124;2023-05-08T06:55:50;157.20;;;13.60;;
5630;SDS011;2837;50.990;7.124;2023-05-08T06:58:15;158.23;;;14.70;;
5630;SDS011;2837;50.990;7.124;2023-05-08T07:00:41;158.90;;;15.30;;
5630;SDS011;2837;50.990;7.124;2023-05-08T07:03:06;160.33;;;14.40;;
5630;SDS011;2837;50.990;7.124;2023-05-08T07:05:32;158.30;;;15.40;;
5630;SDS011;2837;50.990;7.124;2023-05-08T07:07:58;158.53;;;14.13;;
5630;SDS011;2837;50.990;7.124;2023-05-08T07:10:23;159.50;;;16.03;;
5630;SDS011;2837;50.990;7.124;2023-05-08T07:12:49;158.77;;;15.90;;
5630;SDS011;2837;50.990;7.124;2023-05-08T07:15:15;159.07;;;15.77;;
5630;SDS011;2837;50.990;7.124;2023-05-08T07:17:40;156.97;;;14.00;;
5630;SDS011;2837;50.990;7.124;2023-05-08T07:20:06;157.83;;;14.30;;
5630;SDS011;2837;50.990;7.124;2023-05-08T07:22:33;159.10;;;14.60;;
5630;SDS011;2837;50.990;7.124;2023-05-08T07:24:59;160.40;;;15.47;;
5630;SDS011;2837;50.990;7.124;2023-05-08T07:27:24;158.20;;;14.30;;
5630;SDS011;2837;50.990;7.124;2023-05-08T07:29:50;157.67;;;14.50;;
5630;SDS011;2837;50.990;7.124;2023-05-08T07:32:16;158.70;;;14.67;;
5630;SDS011;2837;50.990;7.124;2023-05-08T07:34:41;157.60;;;15.00;;
5630;SDS011;2837;50.990;7.124;2023-05-08T07:37:07;157.47;;;14.03;;
5630;SDS011;2837;50.990;7.124;2023-05-08T07:39:33;157.60;;;14.40;;
5630;SDS011;2837;50.990;7.124;2023-05-08T07:41:59;158.47;;;13.80;;
5630;SDS011;2837;50.990;7.124;2023-05-08T07:44:25;160.50;;;13.80;;
5630;SDS011;2837;50.990;7.124;2023-05-08T07:46:50;158.17;;;14.83;;
5630;SDS011;2837;50.990;7.124;2023-05-08T07:49:16;156.63;;;13.27;;
5630;SDS011;2837;50.990;7.124;2023-05-08T07:51:42;157.87;;;14.27;;
5630;SDS011;2837;50.990;7.124;2023-05-08T07:54:07;158.70;;;14.33;;
5630;SDS011;2837;50.990;7.124;2023-05-08T07:56:33;157.47;;;13.90;;
5630;SDS011;2837;50.990;7.124;2023-05-08T07:58:58;159.67;;;13.97;;
5630;SDS011;2837;50.990;7.124;2023-05-08T08:01:24;158.17;;;13.90;;
5630;SDS011;2837;50.990;7.124;2023-05-08T08:03:50;156.07;;;13.33;;
5630;SDS011;2837;50.990;7.124;2023-05-08T08:06:15;157.90;;;13.17;;
5630;SDS011;2837;50.990;7.124;2023-05-08T08:08:42;160.67;;;14.27;;
5630;SDS011;2837;50.990;7.124;2023-05-08T08:11:08;156.47;;;12.67;;
5630;SDS011;2837;50.990;7.124;2023-05-08T08:13:33;156.97;;;13.93;;
5630;SDS011;2837;50.990;7.124;2023-05-08T08:15:59;156.53;;;13.67;;
5630;SDS011;2837;50.990;7.124;2023-05-08T08:18:25;158.67;;;13.27;;
5630;SDS011;2837;50.990;7.124;2023-05-08T08:20:51;156.17;;;13.57;;
5630;SDS011;2837;50.990;7.124;2023-05-08T08:23:17;158.77;;;14.40;;
5630;SDS011;2837;50.990;7.124;2023-05-08T08:25:42;156.07;;;13.30;;
5630;SDS011;2837;50.990;7.124;2023-05-08T08:28:08;155.83;;;13.77;;
5630;SDS011;2837;50.990;7.124;2023-05-08T08:30:33;156.57;;;14.20;;
5630;SDS011;2837;50.990;7.124;2023-05-08T08:32:59;156.23;;;13.47;;
5630;SDS011;2837;50.990;7.124;2023-05-08T08:35:26;155.67;;;13.90;;
5630;SDS011;2837;50.990;7.124;2023-05-08T08:37:53;157.53;;;13.80;;
5630;SDS011;2837;50.990;7.124;2023-05-08T08:40:20;155.57;;;12.50;;
5630;SDS011;2837;50.990;7.124;2023-05-08T08:42:46;156.27;;;13.67;;
5630;SDS011;2837;50.990;7.124;2023-05-08T08:45:11;155.50;;;13.17;;
5630;SDS011;2837;50.990;7.124;2023-05-08T08:47:37;155.87;;;14.30;;
5630;SDS011;2837;50.990;7.124;2023-05-08T08:50:07;156.37;;;13.73;;
5630;SDS011;2837;50.990;7.124;2023-05-08T08:55:15;155.70;;;12.90;;
5630;SDS011;2837;50.990;7.124;2023-05-08T08:58:06;156.10;;;13.77;;
5630;SDS011;2837;50.990;7.124;2023-05-08T09:00:40;156.57;;;14.13;;
5630;SDS011;2837;50.990;7.124;2023-05-08T09:03:06;155.37;;;14.27;;
5630;SDS011;2837;50.990;7.124;2023-05-08T09:05:34;156.53;;;13.73;;
5630;SDS011;2837;50.990;7.124;2023-05-08T09:08:00;156.47;;;14.10;;
5630;SDS011;2837;50.990;7.124;2023-05-08T09:10:27;154.70;;;13.37;;
5630;SDS011;2837;50.990;7.124;2023-05-08T09:12:52;154.07;;;13.07;;
5630;SDS011;2837;50.990;7.124;2023-05-08T09:15:18;156.30;;;14.30;;
5630;SDS011;2837;50.990;7.124;2023-05-08T09:17:43;155.00;;;13.40;;
5630;SDS011;2837;50.990;7.124;2023-05-08T09:20:09;155.17;;;13.90;;
5630;SDS011;2837;50.990;7.124;2023-05-08T09:22:37;154.67;;;13.27;;
5630;SDS011;2837;50.990;7.124;2023-05-08T09:25:04;154.70;;;12.60;;
5630;SDS011;2837;50.990;7.124;2023-05-08T09:27:31;155.50;;;12.50;;
5630;SDS011;2837;50.990;7.124;2023-05-08T09:29:57;155.20;;;13.90;;
5630;SDS011;2837;50.990;7.124;2023-05-08T09:32:34;155.77;;;14.27;;
5630;SDS011;2837;50.990;7.124;2023-05-08T09:35:02;155.87;;;13.77;;
5630;SDS011;2837;50.990;7.124;2023-05-08T09:37:29;156.73;;;13.93;;
5630;SDS011;2837;50.990;7.124;2023-05-08T09:40:11;155.43;;;13.97;;
5630;SDS011;2837;50.990;7.124;2023-05-08T09:42:41;154.57;;;13.53;;
5630;SDS011;2837;50.990;7.124;2023-05-08T09:45:07;155.20;;;13.40;;
5630;SDS011;2837;50.990;7.124;2023-05-08T09:47:33;156.80;;;14.17;;
5630;SDS011;2837;50.990;7.124;2023-05-08T09:52:32;154.17;;;13.17;;
5630;SDS011;2837;50.990;7.124;2023-05-08T09:54:59;155.07;;;14.13;;
5630;SDS011;2837;50.990;7.124;2023-05-08T09:57:33;156.57;;;14.67;;
5630;SDS011;2837;50.990;7.124;2023-05-08T10:00:06;160.40;;;14.23;;
5630;SDS011;2837;50.990;7.124;2023-05-08T10:02:37;155.40;;;13.27;;
5630;SDS011;2837;50.990;7.124;2023-05-08T10:05:21;164.23;;;14.30;;
5630;SDS011;2837;50.990;7.124;2023-05-08T10:07:55;156.53;;;14.50;;
5630;SDS011;2837;50.990;7.124;2023-05-08T10:10:22;155.60;;;14.90;;
5630;SDS011;2837;50.990;7.124;2023-05-08T10:12:52;154.97;;;13.70;;
5630;SDS011;2837;50.990;7.124;2023-05-08T10:15:22;155.07;;;14.50;;
5630;SDS011;2837;50.990;7.124;2023-05-08T10:17:54;157.00;;;14.70;;
5630;SDS011;2837;50.990;7.124;2023-05-08T10:20:28;154.57;;;13.43;;
5630;SDS011;2837;50.990;7.124;2023-05-08T10:22:55;155.07;;;13.80;;
5630;SDS011;2837;50.990;7.124;2023-05-08T10:25:22;154.80;;;12.57;;
5630;SDS011;2837;50.990;7.124;2023-05-08T10:28:14;156.10;;;12.77;;
5630;SDS011;2837;50.990;7.124;2023-05-08T10:30:37;154.90;;;13.07;;
5630;SDS011;2837;50.990;7.124;2023-05-08T10:33:08;156.77;;;14.57;;
5630;SDS011;2837;50.990;7.124;2023-05-08T10:35:35;155.77;;;14.00;;
5630;SDS011;2837;50.990;7.124;2023-05-08T10:38:01;155.70;;;13.40;;
5630;SDS011;2837;50.990;7.124;2023-05-08T10:40:28;153.97;;;12.90;;
5630;SDS011;2837;50.990;7.124;2023-05-08T10:42:54;157.40;;;14.47;;
5630;SDS011;2837;50.990;7.124;2023-05-08T10:45:21;158.27;;;13.80;;
5630;SDS011;2837;50.990;7.124;2023-05-08T10:53:18;156.37;;;14.43;;
5630;SDS011;2837;50.990;7.124;2023-05-08T10:55:50;157.87;;;14.03;;
5630;SDS011;2837;50.990;7.124;2023-05-08T11:03:16;157.27;;;14.43;;
5630;SDS011;2837;50.990;7.124;2023-05-08T11:05:48;156.77;;;14.40;;
5630;SDS011;2837;50.990;7.124;2023-05-08T11:08:25;155.80;;;14.37;;
5630;SDS011;2837;50.990;7.124;2023-05-08T11:13:33;155.17;;;14.33;;
5630;SDS011;2837;50.990;7.124;2023-05-08T11:16:01;155.40;;;14.33;;
5630;SDS011;2837;50.990;7.124;2023-05-08T11:18:27;157.20;;;14.50;;
5630;SDS011;2837;50.990;7.124;2023-05-08T11:20:57;155.67;;;14.67;;
5630;SDS011;2837;50.990;7.124;2023-05-08T11:23:29;158.00;;;14.87;;
5630;SDS011;2837;50.990;7.124;2023-05-08T11:26:06;156.00;;;14.13;;
5630;SDS011;2837;50.990;7.124;2023-05-08T11:28:39;156.03;;;14.33;;
5630;SDS011;2837;50.990;7.124;2023-05-08T11:31:20;155.20;;;14.83;;
5630;SDS011;2837;50.990;7.124;2023-05-08T11:33:46;153.37;;;12.00;;
5630;SDS011;2837;50.990;7.124;2023-05-08T11:38:38;155.10;;;13.10;;
5630;SDS011;2837;50.990;7.124;2023-05-08T11:41:08;154.67;;;12.40;;
5630;SDS011;2837;50.990;7.124;2023-05-08T11:46:04;154.60;;;13.30;;
5630;SDS011;2837;50.990;7.124;2023-05-08T11:48:37;155.17;;;13.70;;
5630;SDS011;2837;50.990;7.124;2023-05-08T11:51:03;155.63;;;14.10;;
5630;SDS011;2837;50.990;7.124;2023-05-08T11:53:28;154.07;;;12.97;;
5630;SDS011;2837;50.990;7.124;2023-05-08T11:55:55;158.37;;;13.80;;
5630;SDS011;2837;50.990;7.124;2023-05-08T11:58:21;155.10;;;12.77;;
5630;SDS011;2837;50.990;7.124;2023-05-08T12:00:47;156.00;;;13.37;;
5630;SDS011;2837;50.990;7.124;2023-05-08T12:03:14;156.40;;;13.87;;
5630;SDS011;2837;50.990;7.124;2023-05-08T12:05:40;156.20;;;14.17;;
5630;SDS011;2837;50.990;7.124;2023-05-08T12:08:07;154.30;;;13.27;;
5630;SDS011;2837;50.990;7.124;2023-05-08T12:10:40;155.77;;;13.77;;
5630;SDS011;2837;50.990;7.124;2023-05-08T12:16:00;158.10;;;14.70;;
5630;SDS011;2837;50.990;7.124;2023-05-08T12:18:26;157.37;;;14.93;;
5630;SDS011;2837;50.990;7.124;2023-05-08T12:20:58;154.00;;;12.63;;
5630;SDS011;2837;50.990;7.124;2023-05-08T12:23:25;157.13;;;14.27;;
5630;SDS011;2837;50.990;7.124;2023-05-08T12:25:51;154.37;;;13.20;;
5630;SDS011;2837;50.990;7.124;2023-05-08T12:28:18;156.67;;;14.53;;
5630;SDS011;2837;50.990;7.124;2023-05-08T12:30:43;156.30;;;14.03;;
5630;SDS011;2837;50.990;7.124;2023-05-08T12:33:09;155.90;;;14.30;;
5630;SDS011;2837;50.990;7.124;2023-05-08T12:35:35;155.57;;;14.40;;
5630;SDS011;2837;50.990;7.124;2023-05-08T12:38:02;161.03;;;15.20;;
5630;SDS011;2837;50.990;7.124;2023-05-08T12:40:31;155.47;;;13.90;;
5630;SDS011;2837;50.990;7.124;2023-05-08T12:43:04;155.40;;;13.80;;
5630;SDS011;2837;50.990;7.124;2023-05-08T12:45:32;152.47;;;11.70;;
5630;SDS011;2837;50.990;7.124;2023-05-08T12:47:59;164.40;;;15.30;;
5630;SDS011;2837;50.990;7.124;2023-05-08T12:50:26;156.00;;;14.23;;
5630;SDS011;2837;50.990;7.124;2023-05-08T12:52:54;157.70;;;14.57;;
5630;SDS011;2837;50.990;7.124;2023-05-08T12:55:28;155.97;;;14.40;;
5630;SDS011;2837;50.990;7.124;2023-05-08T13:00:42;156.17;;;14.13;;
5630;SDS011;2837;50.990;7.124;2023-05-08T13:03:12;155.47;;;14.27;;
5630;SDS011;2837;50.990;7.124;2023-05-08T13:05:46;158.10;;;14.90;;
5630;SDS011;2837;50.990;7.124;2023-05-08T13:08:12;155.67;;;14.63;;
5630;SDS011;2837;50.990;7.124;2023-05-08T13:13:14;153.67;;;13.60;;
5630;SDS011;2837;50.990;7.124;2023-05-08T13:15:40;156.60;;;13.63;;
5630;SDS011;2837;50.990;7.124;2023-05-08T13:18:07;156.43;;;15.20;;
5630;SDS011;2837;50.990;7.124;2023-05-08T13:20:33;155.57;;;14.50;;
5630;SDS011;2837;50.990;7.124;2023-05-08T13:22:59;156.07;;;14.40;;
5630;SDS011;2837;50.990;7.124;2023-05-08T13:25:25;157.20;;;14.30;;
5630;SDS011;2837;50.990;7.124;2023-05-08T13:27:50;156.80;;;13.37;;
5630;SDS011;2837;50.990;7.124;2023-05-08T13:30:16;155.27;;;14.37;;
5630;SDS011;2837;50.990;7.124;2023-05-08T13:32:42;155.37;;;14.27;;
5630;SDS011;2837;50.990;7.124;2023-05-08T13:35:07;155.87;;;14.93;;
5630;SDS011;2837;50.990;7.124;2023-05-08T13:37:33;154.87;;;14.30;;
5630;SDS011;2837;50.990;7.124;2023-05-08T13:39:58;154.87;;;13.20;;
5630;SDS011;2837;50.990;7.124;2023-05-08T13:42:24;155.53;;;14.93;;
5630;SDS011;2837;50.990;7.124;2023-05-08T13:44:49;154.83;;;14.20;;
5630;SDS011;2837;50.990;7.124;2023-05-08T13:47:15;156.30;;;14.70;;
5630;SDS011;2837;50.990;7.124;2023-05-08T13:49:40;155.77;;;14.10;;
5630;SDS011;2837;50.990;7.124;2023-05-08T13:52:08;156.17;;;15.10;;
5630;SDS011;2837;50.990;7.124;2023-05-08T13:54:33;156.20;;;13.40;;
5630;SDS011;2837;50.990;7.124;2023-05-08T13:56:59;154.60;;;14.17;;
5630;SDS011;2837;50.990;7.124;2023-05-08T13:59:26;154.77;;;14.17;;
5630;SDS011;2837;50.990;7.124;2023-05-08T14:01:52;156.60;;;14.60;;
5630;SDS011;2837;50.990;7.124;2023-05-08T14:04:17;154.50;;;14.10;;
5630;SDS011;2837;50.990;7.124;2023-05-08T14:06:43;158.17;;;15.10;;
5630;SDS011;2837;50.990;7.124;2023-05-08T14:09:09;156.70;;;14.17;;
5630;SDS011;2837;50.990;7.124;2023-05-08T14:11:34;156.27;;;14.23;;
5630;SDS011;2837;50.990;7.124;2023-05-08T14:14:00;155.17;;;13.73;;
5630;SDS011;2837;50.990;7.124;2023-05-08T14:16:26;153.93;;;13.23;;
5630;SDS011;2837;50.990;7.124;2023-05-08T14:18:52;154.70;;;13.30;;
5630;SDS011;2837;50.990;7.124;2023-05-08T14:21:18;155.90;;;14.50;;
5630;SDS011;2837;50.990;7.124;2023-05-08T14:23:43;154.47;;;14.17;;
5630;SDS011;2837;50.990;7.124;2023-05-08T14:26:09;154.47;;;13.03;;
5630;SDS011;2837;50.990;7.124;2023-05-08T14:28:34;154.73;;;13.90;;
5630;SDS011;2837;50.990;7.124;2023-05-08T14:31:00;155.40;;;14.20;;
5630;SDS011;2837;50.990;7.124;2023-05-08T14:33:25;156.07;;;15.50;;
5630;SDS011;2837;50.990;7.124;2023-05-08T14:35:51;154.27;;;13.10;;
5630;SDS011;2837;50.990;7.124;2023-05-08T14:38:17;154.27;;;14.10;;
5630;SDS011;2837;50.990;7.124;2023-05-08T14:40:42;154.00;;;13.53;;
5630;SDS011;2837;50.990;7.124;2023-05-08T14:43:08;155.27;;;13.40;;
5630;SDS011;2837;50.990;7.124;2023-05-08T14:45:33;157.50;;;13.60;;
5630;SDS011;2837;50.990;7.124;2023-05-08T14:47:59;154.03;;;13.07;;
5630;SDS011;2837;50.990;7.124;2023-05-08T14:50:24;155.30;;;13.40;;
5630;SDS011;2837;50.990;7.124;2023-05-08T14:52:51;153.47;;;13.40;;
5630;SDS011;2837;50.990;7.124;2023-05-08T14:55:17;157.47;;;14.47;;
5630;SDS011;2837;50.990;7.124;2023-05-08T14:57:47;153.37;;;12.40;;
5630;SDS011;2837;50.990;7.124;2023-05-08T15:00:14;156.73;;;14.23;;
5630;SDS011;2837;50.990;7.124;2023-05-08T15:02:40;155.53;;;13.80;;
5630;SDS011;2837;50.990;7.124;2023-05-08T15:05:06;155.27;;;13.87;;
5630;SDS011;2837;50.990;7.124;2023-05-08T15:07:32;154.77;;;13.40;;
5630;SDS011;2837;50.990;7.124;2023-05-08T15:09:58;156.00;;;13.27;;
5630;SDS011;2837;50.990;7.124;2023-05-08T15:12:24;150.57;;;10.87;;
5630;SDS011;2837;50.990;7.124;2023-05-08T15:14:49;153.17;;;12.20;;
5630;SDS011;2837;50.990;7.124;2023-05-08T15:17:15;153.30;;;13.00;;
5630;SDS011;2837;50.990;7.124;2023-05-08T15:19:40;152.47;;;11.07;;
5630;SDS011;2837;50.990;7.124;2023-05-08T15:22:06;153.10;;;12.60;;
5630;SDS011;2837;50.990;7.124;2023-05-08T15:24:32;153.40;;;13.07;;
5630;SDS011;2837;50.990;7.124;2023-05-08T15:26:58;155.00;;;13.13;;
5630;SDS011;2837;50.990;7.124;2023-05-08T15:29:24;153.80;;;13.20;;
5630;SDS011;2837;50.990;7.124;2023-05-08T15:31:52;151.90;;;12.20;;
5630;SDS011;2837;50.990;7.124;2023-05-08T15:34:18;153.13;;;12.50;;
5630;SDS011;2837;50.990;7.124;2023-05-08T15:36:43;151.60;;;11.40;;
5630;SDS011;2837;50.990;7.124;2023-05-08T15:39:09;153.77;;;12.50;;
5630;SDS011;2837;50.990;7.124;2023-05-08T15:41:35;152.70;;;12.83;;
5630;SDS011;2837;50.990;7.124;2023-05-08T15:44:01;152.17;;;11.70;;
5630;SDS011;2837;50.990;7.124;2023-05-08T15:46:27;151.97;;;11.80;;
5630;SDS011;2837;50.990;7.124;2023-05-08T15:48:52;152.67;;;12.27;;
5630;SDS011;2837;50.990;7.124;2023-05-08T15:51:18;152.17;;;12.00;;
5630;SDS011;2837;50.990;7.124;2023-05-08T15:53:44;155.07;;;12.70;;
5630;SDS011;2837;50.990;7.124;2023-05-08T15:56:09;152.40;;;12.10;;
5630;SDS011;2837;50.990;7.124;2023-05-08T15:58:35;151.17;;;11.50;;
5630;SDS011;2837;50.990;7.124;2023-05-08T16:01:03;153.20;;;12.60;;
5630;SDS011;2837;50.990;7.124;2023-05-08T16:03:29;153.30;;;12.27;;
5630;SDS011;2837;50.990;7.124;2023-05-08T16:05:55;153.67;;;11.57;;
5630;SDS011;2837;50.990;7.124;2023-05-08T16:08:20;152.57;;;12.00;;
5630;SDS011;2837;50.990;7.124;2023-05-08T16:10:46;152.77;;;13.07;;
5630;SDS011;2837;50.990;7.124;2023-05-08T16:13:12;152.63;;;11.73;;
5630;SDS011;2837;50.990;7.124;2023-05-08T16:15:38;152.30;;;12.47;;
5630;SDS011;2837;50.990;7.124;2023-05-08T16:18:04;152.40;;;12.17;;
5630;SDS011;2837;50.990;7.124;2023-05-08T16:20:30;154.10;;;11.70;;
5630;SDS011;2837;50.990;7.124;2023-05-08T16:22:56;152.27;;;12.17;;
5630;SDS011;2837;50.990;7.124;2023-05-08T16:25:22;153.60;;;12.00;;
5630;SDS011;2837;50.990;7.124;2023-05-08T16:27:48;154.67;;;12.20;;
5630;SDS011;2837;50.990;7.124;2023-05-08T16:30:14;152.87;;;12.80;;
5630;SDS011;2837;50.990;7.124;2023-05-08T16:32:40;153.03;;;12.33;;
5630;SDS011;2837;50.990;7.124;2023-05-08T16:35:06;152.77;;;12.10;;
5630;SDS011;2837;50.990;7.124;2023-05-08T16:37:32;152.60;;;11.90;;
5630;SDS011;2837;50.990;7.124;2023-05-08T16:39:57;153.90;;;11.77;;
5630;SDS011;2837;50.990;7.124;2023-05-08T16:42:23;164.00;;;11.90;;
5630;SDS011;2837;50.990;7.124;2023-05-08T16:44:48;152.80;;;12.20;;
5630;SDS011;2837;50.990;7.124;2023-05-08T16:47:14;153.07;;;12.03;;
5630;SDS011;2837;50.990;7.124;2023-05-08T16:49:40;153.17;;;12.03;;
5630;SDS011;2837;50.990;7.124;2023-05-08T16:52:06;152.67;;;11.73;;
5630;SDS011;2837;50.990;7.124;2023-05-08T16:54:31;152.43;;;11.27;;
5630;SDS011;2837;50.990;7.124;2023-05-08T16:56:57;152.23;;;11.63;;
5630;SDS011;2837;50.990;7.124;2023-05-08T16:59:22;153.07;;;11.97;;
5630;SDS011;2837;50.990;7.124;2023-05-08T17:01:48;151.87;;;11.50;;
5630;SDS011;2837;50.990;7.124;2023-05-08T17:04:13;152.80;;;11.80;;
5630;SDS011;2837;50.990;7.124;2023-05-08T17:06:39;152.57;;;12.90;;
5630;SDS011;2837;50.990;7.124;2023-05-08T17:09:05;152.23;;;11.67;;
5630;SDS011;2837;50.990;7.124;2023-05-08T17:11:30;151.17;;;11.60;;
5630;SDS011;2837;50.990;7.124;2023-05-08T17:13:56;152.50;;;12.30;;
5630;SDS011;2837;50.990;7.124;2023-05-08T17:16:22;153.20;;;12.33;;
5630;SDS011;2837;50.990;7.124;2023-05-08T17:18:47;153.27;;;12.30;;
5630;SDS011;2837;50.990;7.124;2023-05-08T17:21:13;153.30;;;12.53;;
5630;SDS011;2837;50.990;7.124;2023-05-08T17:23:38;152.23;;;11.80;;
5630;SDS011;2837;50.990;7.124;2023-05-08T17:26:04;153.03;;;12.67;;
5630;SDS011;2837;50.990;7.124;2023-05-08T17:28:30;160.73;;;12.50;;
5630;SDS011;2837;50.990;7.124;2023-05-08T17:30:55;157.83;;;12.37;;
5630;SDS011;2837;50.990;7.124;2023-05-08T17:33:23;153.40;;;12.40;;
5630;SDS011;2837;50.990;7.124;2023-05-08T17:35:49;151.77;;;11.60;;
5630;SDS011;2837;50.990;7.124;2023-05-08T17:38:15;152.37;;;12.20;;
5630;SDS011;2837;50.990;7.124;2023-05-08T17:40:40;153.17;;;12.47;;
5630;SDS011;2837;50.990;7.124;2023-05-08T17:43:06;152.83;;;12.30;;
5630;SDS011;2837;50.990;7.124;2023-05-08T17:45:35;152.57;;;12.10;;
5630;SDS011;2837;50.990;7.124;2023-05-08T17:48:00;154.17;;;11.50;;
5630;SDS011;2837;50.990;7.124;2023-05-08T17:50:26;152.80;;;12.70;;
5630;SDS011;2837;50.990;7.124;2023-05-08T17:52:51;152.87;;;12.43;;
5630;SDS011;2837;50.990;7.124;2023-05-08T17:55:17;153.07;;;12.70;;
5630;SDS011;2837;50.990;7.124;2023-05-08T17:57:43;152.07;;;12.00;;
5630;SDS011;2837;50.990;7.124;2023-05-08T18:00:09;154.80;;;12.63;;
5630;SDS011;2837;50.990;7.124;2023-05-08T18:02:35;151.73;;;11.27;;
5630;SDS011;2837;50.990;7.124;2023-05-08T18:05:00;152.67;;;12.53;;
5630;SDS011;2837;50.990;7.124;2023-05-08T18:07:26;154.57;;;12.03;;
5630;SDS011;2837;50.990;7.124;2023-05-08T18:09:51;153.30;;;11.83;;
5630;SDS011;2837;50.990;7.124;2023-05-08T18:12:17;153.17;;;12.10;;
5630;SDS011;2837;50.990;7.124;2023-05-08T18:14:42;155.07;;;11.93;;
5630;SDS011;2837;50.990;7.124;2023-05-08T18:17:09;155.50;;;12.27;;
5630;SDS011;2837;50.990;7.124;2023-05-08T18:19:36;152.20;;;12.23;;
5630;SDS011;2837;50.990;7.124;2023-05-08T18:22:01;154.10;;;12.73;;
5630;SDS011;2837;50.990;7.124;2023-05-08T18:24:28;157.90;;;12.03;;
5630;SDS011;2837;50.990;7.124;2023-05-08T18:26:54;153.00;;;12.47;;
5630;SDS011;2837;50.990;7.124;2023-05-08T18:29:19;154.57;;;12.07;;
5630;SDS011;2837;50.990;7.124;2023-05-08T18:31:45;152.33;;;11.77;;
5630;SDS011;2837;50.990;7.124;2023-05-08T18:34:11;154.10;;;13.17;;
5630;SDS011;2837;50.990;7.124;2023-05-08T18:36:36;152.93;;;12.30;;
5630;SDS011;2837;50.990;7.124;2023-05-08T18:39:02;152.97;;;12.97;;
5630;SDS011;2837;50.990;7.124;2023-05-08T18:41:28;152.20;;;11.43;;
5630;SDS011;2837;50.990;7.124;2023-05-08T18:43:53;153.10;;;12.33;;
5630;SDS011;2837;50.990;7.124;2023-05-08T18:46:19;154.47;;;13.27;;
5630;SDS011;2837;50.990;7.124;2023-05-08T18:48:44;155.67;;;12.57;;
5630;SDS011;2837;50.990;7.124;2023-05-08T18:51:10;153.90;;;13.00;;
5630;SDS011;2837;50.990;7.124;2023-05-08T18:53:36;153.70;;;12.77;;
5630;SDS011;2837;50.990;7.124;2023-05-08T18:56:03;153.27;;;11.97;;
5630;SDS011;2837;50.990;7.124;2023-05-08T18:58:29;154.27;;;12.30;;
5630;SDS011;2837;50.990;7.124;2023-05-08T19:00:55;152.77;;;12.30;;
5630;SDS011;2837;50.990;7.124;2023-05-08T19:03:21;152.67;;;11.67;;
5630;SDS011;2837;50.990;7.124;2023-05-08T19:05:47;158.00;;;11.33;;
5630;SDS011;2837;50.990;7.124;2023-05-08T19:08:15;152.23;;;11.53;;
5630;SDS011;2837;50.990;7.124;2023-05-08T19:10:41;157.17;;;12.50;;
5630;SDS011;2837;50.990;7.124;2023-05-08T19:13:06;152.97;;;12.43;;
5630;SDS011;2837;50.990;7.124;2023-05-08T19:15:32;154.80;;;13.17;;
5630;SDS011;2837;50.990;7.124;2023-05-08T19:17:58;158.57;;;13.67;;
5630;SDS011;2837;50.990;7.124;2023-05-08T19:20:24;153.57;;;12.43;;
5630;SDS011;2837;50.990;7.124;2023-05-08T19:22:50;154.03;;;12.63;;
5630;SDS011;2837;50.990;7.124;2023-05-08T19:25:15;153.07;;;12.67;;
5630;SDS011;2837;50.990;7.124;2023-05-08T19:27:41;153.17;;;12.20;;
5630;SDS011;2837;50.990;7.124;2023-05-08T19:30:06;153.10;;;11.90;;
5630;SDS011;2837;50.990;7.124;2023-05-08T19:32:32;153.37;;;11.43;;
5630;SDS011;2837;50.990;7.124;2023-05-08T19:34:58;153.23;;;12.30;;
5630;SDS011;2837;50.990;7.124;2023-05-08T19:37:25;152.37;;;11.80;;
5630;SDS011;2837;50.990;7.124;2023-05-08T19:39:50;158.10;;;13.37;;
5630;SDS011;2837;50.990;7.124;2023-05-08T19:42:16;154.67;;;12.30;;
5630;SDS011;2837;50.990;7.124;2023-05-08T19:44:41;153.27;;;12.87;;
5630;SDS011;2837;50.990;7.124;2023-05-08T19:47:07;154.07;;;12.60;;
5630;SDS011;2837;50.990;7.124;2023-05-08T19:49:32;154.47;;;12.70;;
5630;SDS011;2837;50.990;7.124;2023-05-08T19:51:58;154.97;;;13.13;;
5630;SDS011;2837;50.990;7.124;2023-05-08T19:54:23;157.43;;;13.00;;
5630;SDS011;2837;50.990;7.124;2023-05-08T19:56:49;156.60;;;14.10;;
5630;SDS011;2837;50.990;7.124;2023-05-08T19:59:15;155.80;;;12.90;;
5630;SDS011;2837;50.990;7.124;2023-05-08T20:01:40;153.33;;;12.43;;